Time;durP1;ratioP1;P1;durP2;ratioP2;P2;SDS_P1;SDS_P2;PMS_P1;PMS_P2;Temp;Humidity;BMP_temperature;BMP_pressure;BME280_temperature;BME280_humidity;BME280_pressure;Samples;Min_cycle;Max_cycle;Signal;HPM_P1;HPM_P2
2021/12/28 00:00:18;;;;;;;;;;;;;;;17.91;44.04;99454.31;4984025;28;19925;-47
2021/12/28 00:02:47;;;;;;;;;;;;;;;17.90;43.75;99458.03;4981901;28;19918;-43
2021/12/28 00:05:13;;;;;;;;;;;;;;;17.90;44.08;99455.34;4983394;28;19933;-45
2021/12/28 00:07:38;;;;;;;;;;;;;;;17.89;43.90;99448.31;4983288;28;19919;-47
2021/12/28 00:10:04;;;;;;;;;;;;;;;17.89;43.90;99444.78;4983620;28;19918;-46
2021/12/28 00:12:32;;;;;;;;;;;;;;;17.88;43.87;99443.97;4983734;28;19985;-47
2021/12/28 00:15:17;;;;;;;;;;;;;;;17.88;43.93;99451.16;4983881;28;19925;-46
2021/12/28 00:20:27;;;;;;;;;;;;;;;17.87;44.04;99449.50;4983742;28;19926;-45
2021/12/28 00:22:52;;;;;;;;;;;;;;;17.86;44.01;99454.06;4983558;28;19918;-44
2021/12/28 00:25:17;;;;;;;;;;;;;;;17.86;44.00;99456.75;4983239;28;20006;-45
2021/12/28 00:27:42;;;;;;;;;;;;;;;17.85;43.87;99446.22;4975418;28;19919;-44
2021/12/28 00:30:08;;;;;;;;;;;;;;;17.85;43.88;99446.22;4984001;28;19981;-45
2021/12/28 00:32:33;;;;;;;;;;;;;;;17.85;43.99;99446.22;4965532;28;19942;-44
2021/12/28 00:34:58;;;;;;;;;;;;;;;17.84;43.81;99453.44;4981952;28;19918;-43
2021/12/28 00:37:23;;;;;;;;;;;;;;;17.84;43.91;99447.22;4982163;28;19918;-45
2021/12/28 00:39:49;;;;;;;;;;;;;;;17.83;43.92;99450.94;4983263;28;19925;-46
2021/12/28 00:42:14;;;;;;;;;;;;;;;17.83;43.79;99448.25;4983371;28;19945;-45
2021/12/28 00:44:39;;;;;;;;;;;;;;;17.82;43.90;99442.03;4982976;28;19930;-44
2021/12/28 00:47:04;;;;;;;;;;;;;;;17.82;44.02;99447.41;4983424;28;19925;-46
2021/12/28 00:49:30;;;;;;;;;;;;;;;17.82;43.79;99447.41;4982930;28;20661;-47
2021/12/28 00:51:55;;;;;;;;;;;;;;;17.82;43.96;99435.84;4983157;28;20431;-44
2021/12/28 00:54:20;;;;;;;;;;;;;;;17.82;44.03;99435.84;4983213;28;19922;-47
2021/12/28 00:56:45;;;;;;;;;;;;;;;17.81;43.97;99431.50;4983103;28;19918;-47
2021/12/28 00:59:12;;;;;;;;;;;;;;;17.80;43.96;99427.97;4982776;28;19924;-48
2021/12/28 01:01:37;;;;;;;;;;;;;;;17.80;43.82;99427.13;4983361;28;19926;-45
2021/12/28 01:04:02;;;;;;;;;;;;;;;17.80;43.97;99436.03;4982234;28;19918;-45
2021/12/28 01:06:27;;;;;;;;;;;;;;;17.80;44.05;99435.19;4982997;28;19993;-45
2021/12/28 01:08:52;;;;;;;;;;;;;;;17.79;43.97;99434.38;4983067;28;19977;-44
2021/12/28 01:11:17;;;;;;;;;;;;;;;17.78;43.85;99430.03;4983220;28;19981;-46
2021/12/28 01:13:42;;;;;;;;;;;;;;;17.78;43.98;99435.41;4982820;28;20008;-47
2021/12/28 01:16:08;;;;;;;;;;;;;;;17.78;43.85;99427.34;4983125;28;19929;-48
2021/12/28 01:18:33;;;;;;;;;;;;;;;17.77;43.88;99425.69;4982237;28;19922;-48
2021/12/28 01:20:58;;;;;;;;;;;;;;;17.77;43.78;99422.16;4986480;28;19918;-48
2021/12/28 01:23:26;;;;;;;;;;;;;;;17.77;43.93;99411.41;4986543;28;19918;-45
2021/12/28 01:25:51;;;;;;;;;;;;;;;17.76;43.84;99407.91;4986324;28;19922;-47
2021/12/28 01:28:16;;;;;;;;;;;;;;;17.76;43.84;99417.81;4986691;28;19921;-44
2021/12/28 01:30:42;;;;;;;;;;;;;;;17.76;43.94;99415.13;4986569;28;19953;-44
2021/12/28 01:33:07;;;;;;;;;;;;;;;17.74;43.83;99413.44;4985953;28;19928;-47
2021/12/28 01:35:33;;;;;;;;;;;;;;;17.75;43.91;99411.59;4986220;28;19924;-46
2021/12/28 01:37:59;;;;;;;;;;;;;;;17.75;43.77;99408.91;4986693;28;20021;-44
2021/12/28 01:40:26;;;;;;;;;;;;;;;17.74;43.70;99408.06;4986832;28;19918;-46
2021/12/28 01:42:54;;;;;;;;;;;;;;;17.73;43.93;99416.31;4985946;28;19926;-44
2021/12/28 01:45:28;;;;;;;;;;;;;;;17.72;43.94;99412.81;4986214;28;19922;-44
2021/12/28 01:47:53;;;;;;;;;;;;;;;17.72;43.94;99411.97;4985642;28;19926;-44
2021/12/28 01:50:19;;;;;;;;;;;;;;;17.72;43.98;99415.50;4986313;28;19918;-43
2021/12/28 01:52:44;;;;;;;;;;;;;;;17.71;44.03;99416.53;4986321;28;20395;-46
2021/12/28 01:55:09;;;;;;;;;;;;;;;17.72;44.00;99414.66;4985893;28;19918;-43
2021/12/28 01:57:34;;;;;;;;;;;;;;;17.71;43.93;99415.66;4985929;28;19925;-43
2021/12/28 01:59:59;;;;;;;;;;;;;;;17.70;43.74;99409.47;4985840;28;19929;-44
2021/12/28 02:02:24;;;;;;;;;;;;;;;17.69;43.89;99410.50;4984598;28;19922;-43
2021/12/28 02:04:50;;;;;;;;;;;;;;;17.68;43.85;99403.47;4985133;28;20411;-49
2021/12/28 02:07:15;;;;;;;;;;;;;;;17.68;43.81;99399.94;4984588;28;19941;-43
2021/12/28 02:09:40;;;;;;;;;;;;;;;17.67;43.94;99407.19;4985833;28;19957;-44
2021/12/28 02:12:05;;;;;;;;;;;;;;;17.67;44.05;99400.97;5016931;28;19990;-48
2021/12/28 02:14:30;;;;;;;;;;;;;;;17.66;43.89;99404.69;4985488;28;19926;-44
2021/12/28 02:16:56;;;;;;;;;;;;;;;17.55;44.01;99384.56;4985512;28;19926;-47
2021/12/28 02:19:21;;;;;;;;;;;;;;;17.65;44.06;99405.72;4985227;28;19918;-45
2021/12/28 02:21:46;;;;;;;;;;;;;;;17.64;43.76;99401.38;4985450;28;19953;-43
2021/12/28 02:24:11;;;;;;;;;;;;;;;17.63;44.07;99400.56;4985447;28;19926;-45
2021/12/28 02:26:36;;;;;;;;;;;;;;;17.63;44.08;99391.66;4985282;28;19922;-44
2021/12/28 02:29:02;;;;;;;;;;;;;;;17.62;43.98;99392.66;5016650;28;19915;-46
2021/12/28 02:31:27;;;;;;;;;;;;;;;17.62;44.00;99395.34;4984900;28;19925;-46
2021/12/28 02:33:53;;;;;;;;;;;;;;;17.62;43.80;99392.66;4984708;28;19918;-44
2021/12/28 02:36:18;;;;;;;;;;;;;;;17.60;44.05;99378.59;4985114;28;19929;-43
2021/12/28 02:38:44;;;;;;;;;;;;;;;17.60;43.93;99381.28;4985499;28;20438;-42
2021/12/28 02:41:10;;;;;;;;;;;;;;;17.58;43.84;99383.34;4985357;28;19920;-45
2021/12/28 02:43:35;;;;;;;;;;;;;;;17.57;43.96;99376.31;4985272;28;19925;-44
2021/12/28 02:46:05;;;;;;;;;;;;;;;17.56;43.81;99383.53;4985271;28;19918;-45
2021/12/28 02:48:31;;;;;;;;;;;;;;;17.56;44.01;99380.03;4984254;28;20418;-44
2021/12/28 02:50:58;;;;;;;;;;;;;;;17.55;44.05;99370.31;4985082;28;19914;-46
2021/12/28 02:53:23;;;;;;;;;;;;;;;17.55;44.06;99373.00;4985066;28;19969;-47
2021/12/28 02:55:49;;;;;;;;;;;;;;;17.54;43.86;99365.94;4984597;28;19925;-44
2021/12/28 02:58:30;;;;;;;;;;;;;;;17.54;44.03;99364.06;4984760;28;19922;-47
2021/12/28 03:01:01;;;;;;;;;;;;;;;17.53;44.03;99365.13;4984963;28;19989;-46
2021/12/28 03:03:28;;;;;;;;;;;;;;;17.53;43.92;99358.91;4984194;28;19915;-43
2021/12/28 03:05:54;;;;;;;;;;;;;;;17.51;44.08;99359.13;4984618;28;19929;-44
2021/12/28 03:08:20;;;;;;;;;;;;;;;17.51;43.97;99355.59;4984889;28;19918;-44
2021/12/28 03:10:45;;;;;;;;;;;;;;;17.49;43.99;99355.78;4985047;28;19918;-45
2021/12/28 03:13:15;;;;;;;;;;;;;;;17.49;44.01;99343.19;4984690;28;19918;-44
2021/12/28 03:15:40;;;;;;;;;;;;;;;17.48;44.18;99343.38;4984443;28;19929;-43
2021/12/28 03:18:05;;;;;;;;;;;;;;;17.47;44.06;99337.19;4983807;28;19922;-48
2021/12/28 03:20:30;;;;;;;;;;;;;;;17.46;43.95;99342.75;4979249;28;20009;-44
2021/12/28 03:22:55;;;;;;;;;;;;;;;17.45;44.07;99349.16;4984681;28;19942;-47
2021/12/28 03:25:21;;;;;;;;;;;;;;;17.44;43.94;99344.81;4984195;28;19922;-44
2021/12/28 03:27:46;;;;;;;;;;;;;;;17.44;44.10;99342.94;4984506;28;19972;-49
2021/12/28 03:30:12;;;;;;;;;;;;;;;17.43;44.21;99338.59;4984613;28;19918;-43
2021/12/28 03:32:38;;;;;;;;;;;;;;;17.39;44.16;99336.50;4983721;28;19973;-46
2021/12/28 03:35:03;;;;;;;;;;;;;;;17.42;44.11;99331.56;4984290;28;19972;-47
2021/12/28 03:37:29;;;;;;;;;;;;;;;17.41;44.05;99329.91;4984215;28;19918;-48
2021/12/28 03:39:54;;;;;;;;;;;;;;;17.38;44.14;99314.19;4984428;28;19953;-48
2021/12/28 03:42:19;;;;;;;;;;;;;;;17.39;44.18;99315.84;4983870;28;19980;-45
2021/12/28 03:44:45;;;;;;;;;;;;;;;17.38;44.08;99306.13;4983331;28;19922;-46
2021/12/28 03:47:10;;;;;;;;;;;;;;;17.38;44.20;99305.31;4983899;28;19953;-50
2021/12/28 03:49:35;;;;;;;;;;;;;;;17.38;44.01;99306.13;4983803;28;19918;-47
2021/12/28 03:52:01;;;;;;;;;;;;;;;17.37;44.15;99298.25;4984168;28;19926;-42
2021/12/28 03:54:26;;;;;;;;;;;;;;;17.36;44.19;99293.91;4984162;28;19925;-44
2021/12/28 03:56:53;;;;;;;;;;;;;;;17.35;44.23;99297.63;4983702;28;19918;-44
2021/12/28 03:59:18;;;;;;;;;;;;;;;17.35;44.28;99298.47;4983981;28;20009;-48
2021/12/28 04:01:43;;;;;;;;;;;;;;;17.34;44.14;99294.13;4983964;28;19989;-43
2021/12/28 04:04:08;;;;;;;;;;;;;;;17.34;44.20;99294.13;4983264;28;19922;-46
2021/12/28 04:06:35;;;;;;;;;;;;;;;17.33;44.22;99289.78;4983744;28;19922;-47
2021/12/28 04:09:02;;;;;;;;;;;;;;;17.33;44.08;99286.25;4983745;28;20595;-46
2021/12/28 04:11:28;;;;;;;;;;;;;;;17.33;44.29;99288.94;4983984;28;19918;-47
2021/12/28 04:13:54;;;;;;;;;;;;;;;17.33;44.28;99280.88;4983238;28;19924;-46
2021/12/28 04:16:19;;;;;;;;;;;;;;;17.33;44.10;99280.88;4984195;28;19981;-45
2021/12/28 04:18:45;;;;;;;;;;;;;;;17.32;44.22;99271.16;4982868;28;19922;-45
2021/12/28 04:21:10;;;;;;;;;;;;;;;17.32;44.16;99273.84;4983572;28;20020;-49
2021/12/28 04:23:36;;;;;;;;;;;;;;;17.31;44.24;99274.88;4983695;28;20433;-43
2021/12/28 04:26:01;;;;;;;;;;;;;;;17.30;44.00;99276.75;4983299;28;19926;-43
2021/12/28 04:28:26;;;;;;;;;;;;;;;17.29;44.06;99277.78;4983515;28;20282;-44
2021/12/28 04:30:51;;;;;;;;;;;;;;;17.29;44.20;99276.91;4983483;28;19918;-49
2021/12/28 04:33:16;;;;;;;;;;;;;;;17.27;44.32;99277.13;4982572;28;19918;-50
2021/12/28 04:35:42;;;;;;;;;;;;;;;17.28;44.10;99272.56;4983308;28;20013;-49
2021/12/28 04:38:07;;;;;;;;;;;;;;;17.27;44.13;99268.25;4983449;28;19977;-50
2021/12/28 04:40:32;;;;;;;;;;;;;;;17.26;44.24;99270.09;4983718;28;19925;-47
2021/12/28 04:42:57;;;;;;;;;;;;;;;17.25;44.26;99265.75;4983608;28;20641;-48
2021/12/28 04:45:22;;;;;;;;;;;;;;;17.24;44.03;99262.22;4983177;28;20022;-48
2021/12/28 04:47:47;;;;;;;;;;;;;;;17.23;44.26;99263.25;4982788;28;20032;-50
2021/12/28 04:50:13;;;;;;;;;;;;;;;17.23;44.06;99260.56;4983212;28;19918;-46
2021/12/28 04:52:39;;;;;;;;;;;;;;;17.23;44.14;99257.88;4983560;28;19918;-48
2021/12/28 04:55:06;;;;;;;;;;;;;;;17.23;44.10;99257.06;4985455;28;19972;-47
2021/12/28 04:57:31;;;;;;;;;;;;;;;17.22;44.28;99252.72;4987058;28;19930;-44
2021/12/28 04:59:57;;;;;;;;;;;;;;;17.22;44.30;99258.09;4987222;28;20374;-47
2021/12/28 05:02:22;;;;;;;;;;;;;;;17.20;44.25;99255.63;4987160;28;19925;-49
2021/12/28 05:04:47;;;;;;;;;;;;;;;17.21;44.28;99253.75;4986680;28;19933;-48
2021/12/28 05:07:12;;;;;;;;;;;;;;;17.21;44.29;99253.75;4987251;28;19918;-48
2021/12/28 05:09:37;;;;;;;;;;;;;;;17.20;44.20;99258.31;4986839;28;19918;-48
2021/12/28 05:12:02;;;;;;;;;;;;;;;17.20;44.25;99254.75;4987014;28;19953;-50
2021/12/28 05:14:28;;;;;;;;;;;;;;;16.99;44.26;99213.56;4986708;28;19918;-47
2021/12/28 05:16:53;;;;;;;;;;;;;;;17.19;44.27;99245.88;4986564;28;19977;-52
2021/12/28 05:19:18;;;;;;;;;;;;;;;17.19;44.14;99229.75;4986347;28;19938;-49
2021/12/28 05:21:43;;;;;;;;;;;;;;;17.18;44.11;99225.44;4986668;28;19993;-52
2021/12/28 05:24:08;;;;;;;;;;;;;;;17.19;44.12;99231.63;4986957;28;19917;-49
2021/12/28 05:26:34;;;;;;;;;;;;;;;17.18;44.16;99224.59;4986320;28;20630;-46
2021/12/28 05:28:59;;;;;;;;;;;;;;;17.19;44.10;99228.94;4986599;28;20020;-43
2021/12/28 05:31:27;;;;;;;;;;;;;;;17.19;44.37;99228.94;4986696;28;19977;-48
2021/12/28 05:33:53;;;;;;;;;;;;;;;17.19;44.09;99231.63;4985861;28;19918;-43
2021/12/28 05:36:18;;;;;;;;;;;;;;;17.19;44.31;99220.88;4986789;28;20015;-47
2021/12/28 05:38:44;;;;;;;;;;;;;;;17.19;44.20;99213.66;4986456;28;19953;-45
2021/12/28 05:41:09;;;;;;;;;;;;;;;17.20;44.34;99227.91;4986687;28;20497;-50
2021/12/28 05:43:34;;;;;;;;;;;;;;;17.19;44.04;99219.03;4985252;28;19981;-48
2021/12/28 05:45:59;;;;;;;;;;;;;;;17.19;44.24;99208.28;4983799;28;19926;-51
2021/12/28 05:48:24;;;;;;;;;;;;;;;17.19;44.16;99205.59;4985144;28;20022;-46
2021/12/28 05:50:50;;;;;;;;;;;;;;;17.20;44.22;99203.72;4985962;28;20610;-47
2021/12/28 05:53:15;;;;;;;;;;;;;;;17.20;44.31;99201.03;4986087;28;19949;-50
2021/12/28 05:55:40;;;;;;;;;;;;;;;17.19;44.19;99194.03;4984508;28;19922;-46
2021/12/28 05:58:05;;;;;;;;;;;;;;;17.19;44.14;99189.47;4986063;28;19918;-50
2021/12/28 06:00:30;;;;;;;;;;;;;;;17.19;44.32;99194.84;4985592;28;19922;-47
2021/12/28 06:02:56;;;;;;;;;;;;;;;17.19;44.28;99194.03;4985061;28;19933;-44
2021/12/28 06:05:21;;;;;;;;;;;;;;;17.19;44.21;99188.66;4984795;28;19922;-52
2021/12/28 06:07:46;;;;;;;;;;;;;;;17.19;44.49;99185.97;4984896;28;19925;-50
2021/12/28 06:10:14;;;;;;;;;;;;;;;17.18;44.31;99185.13;4985582;28;19925;-51
2021/12/28 06:12:39;;;;;;;;;;;;;;;17.19;44.31;99183.28;4985329;28;19993;-50
2021/12/28 06:15:05;;;;;;;;;;;;;;;17.19;44.49;99180.59;4985276;28;19918;-49
2021/12/28 06:17:30;;;;;;;;;;;;;;;17.19;44.48;99180.59;4984982;28;19933;-48
2021/12/28 06:19:55;;;;;;;;;;;;;;;17.18;44.44;99174.41;4984930;28;20337;-49
2021/12/28 06:22:20;;;;;;;;;;;;;;;17.18;44.37;99174.41;4985492;28;19961;-47
2021/12/28 06:24:45;;;;;;;;;;;;;;;17.20;44.56;99182.25;4984870;28;19922;-49
2021/12/28 06:27:10;;;;;;;;;;;;;;;17.19;44.54;99177.91;4985021;28;19922;-51
2021/12/28 06:29:36;;;;;;;;;;;;;;;17.19;44.51;99175.22;4985205;28;19918;-47
2021/12/28 06:32:01;;;;;;;;;;;;;;;17.19;44.36;99176.03;4983763;28;19971;-49
2021/12/28 06:34:26;;;;;;;;;;;;;;;17.20;44.45;99171.50;4984637;28;19918;-50
2021/12/28 06:36:51;;;;;;;;;;;;;;;17.19;44.61;99162.63;4984734;28;19953;-51
2021/12/28 06:39:16;;;;;;;;;;;;;;;17.19;44.57;99170.69;4985049;28;19930;-49
2021/12/28 06:41:41;;;;;;;;;;;;;;;17.19;44.71;99173.38;4984897;28;19918;-49
2021/12/28 06:44:07;;;;;;;;;;;;;;;17.20;44.55;99164.31;4984230;28;20384;-51
2021/12/28 06:46:32;;;;;;;;;;;;;;;17.20;44.73;99175.03;4985111;28;19919;-50
2021/12/28 06:48:57;;;;;;;;;;;;;;;17.21;44.83;99170.50;4984574;28;19914;-48
2021/12/28 06:51:22;;;;;;;;;;;;;;;17.21;44.62;99173.19;4985158;28;20599;-47
2021/12/28 06:53:48;;;;;;;;;;;;;;;17.21;44.64;99174.00;4984884;28;19956;-49
2021/12/28 06:56:13;;;;;;;;;;;;;;;17.20;44.69;99175.03;4984984;28;19922;-46
2021/12/28 06:58:40;;;;;;;;;;;;;;;17.21;44.64;99179.38;4984353;28;19914;-51
2021/12/28 07:01:05;;;;;;;;;;;;;;;17.20;44.83;99175.03;4985051;28;19914;-48
2021/12/28 07:03:30;;;;;;;;;;;;;;;17.21;44.68;99183.94;4984051;28;19930;-51
2021/12/28 07:05:56;;;;;;;;;;;;;;;17.20;44.85;99174.19;4985020;28;20339;-50
2021/12/28 07:08:21;;;;;;;;;;;;;;;17.20;44.94;99176.88;4979861;28;19937;-47
2021/12/28 07:10:46;;;;;;;;;;;;;;;17.19;44.74;99181.41;4981524;28;19918;-49
2021/12/28 07:13:11;;;;;;;;;;;;;;;17.19;44.96;99169.84;4984182;28;20028;-50
2021/12/28 07:15:36;;;;;;;;;;;;;;;17.18;44.86;99162.84;4984251;28;20008;-48
2021/12/28 07:18:01;;;;;;;;;;;;;;;17.18;44.82;99163.66;4983646;28;19930;-48
2021/12/28 07:20:27;;;;;;;;;;;;;;;17.18;44.94;99155.59;4988031;28;19942;-47
2021/12/28 07:22:52;;;;;;;;;;;;;;;17.19;45.14;99159.09;4985489;28;19929;-52
2021/12/28 07:25:17;;;;;;;;;;;;;;;17.20;45.02;99163.44;4982806;28;19982;-52
2021/12/28 07:27:42;;;;;;;;;;;;;;;17.22;45.28;99148.81;4985057;28;19950;-47
2021/12/28 07:30:09;;;;;;;;;;;;;;;17.26;45.23;99162.66;4988306;28;20000;-50
2021/12/28 07:32:35;;;;;;;;;;;;;;;17.28;45.33;99144.47;4984614;28;19924;-49
2021/12/28 07:35:00;;;;;;;;;;;;;;;17.32;45.06;99147.59;4985715;28;19950;-48
2021/12/28 07:37:25;;;;;;;;;;;;;;;17.33;45.03;99149.25;4989118;28;19918;-49
2021/12/28 07:39:50;;;;;;;;;;;;;;;17.35;44.93;99149.88;4983645;28;20429;-50
2021/12/28 07:42:16;;;;;;;;;;;;;;;17.35;44.95;99137.28;4984186;28;20395;-51
2021/12/28 07:44:41;;;;;;;;;;;;;;;17.36;44.99;99125.50;4983827;28;19922;-51
2021/12/28 07:47:06;;;;;;;;;;;;;;;17.37;44.85;99129.84;4984107;28;19922;-45
2021/12/28 07:49:31;;;;;;;;;;;;;;;17.39;44.93;99132.34;4983724;28;20555;-48
2021/12/28 07:51:57;;;;;;;;;;;;;;;17.40;45.04;99129.44;4984074;28;19922;-48
2021/12/28 07:54:22;;;;;;;;;;;;;;;17.40;45.15;99129.44;4983573;28;19921;-50
2021/12/28 07:56:47;;;;;;;;;;;;;;;17.40;44.96;99121.38;4983937;28;19918;-49
2021/12/28 07:59:12;;;;;;;;;;;;;;;17.41;45.04;99114.16;4983545;28;19943;-49
2021/12/28 08:01:37;;;;;;;;;;;;;;;17.40;45.10;99118.69;4984105;28;19918;-48
2021/12/28 08:04:03;;;;;;;;;;;;;;;17.40;45.26;99124.06;4985849;28;20307;-47
2021/12/28 08:06:28;;;;;;;;;;;;;;;17.39;45.39;99125.09;4983117;28;19929;-49
2021/12/28 08:08:53;;;;;;;;;;;;;;;17.39;45.39;99127.78;4984644;28;20551;-44
2021/12/28 08:11:18;;;;;;;;;;;;;;;17.39;45.42;99132.34;4983694;28;19922;-46
2021/12/28 08:13:43;;;;;;;;;;;;;;;17.40;45.54;99124.06;4982800;28;20016;-46
2021/12/28 08:16:08;;;;;;;;;;;;;;;17.42;45.49;99129.25;4983521;28;19977;-48
2021/12/28 08:18:34;;;;;;;;;;;;;;;17.42;45.42;99135.44;4982854;28;19950;-46
2021/12/28 08:20:59;;;;;;;;;;;;;;;17.42;45.62;99132.75;4983606;28;20006;-44
2021/12/28 08:23:24;;;;;;;;;;;;;;;17.44;45.43;99136.06;4983529;28;19929;-49
2021/12/28 08:25:50;;;;;;;;;;;;;;;17.44;45.40;99129.88;4982955;28;19933;-44
2021/12/28 08:28:15;;;;;;;;;;;;;;;17.45;45.43;99110.03;4983249;28;19922;-47
2021/12/28 08:30:40;;;;;;;;;;;;;;;17.44;45.30;99111.06;4983131;28;19929;-49
2021/12/28 08:33:06;;;;;;;;;;;;;;;17.46;45.45;99117.91;5009360;28;19925;-44
2021/12/28 08:35:32;;;;;;;;;;;;;;;17.47;45.66;99118.72;4979992;28;19926;-47
2021/12/28 08:37:57;;;;;;;;;;;;;;;17.47;45.83;99111.50;4977770;28;19921;-42
2021/12/28 08:40:23;;;;;;;;;;;;;;;17.49;45.83;99114.78;4980677;28;19919;-42
2021/12/28 08:42:49;;;;;;;;;;;;;;;17.51;46.04;99111.09;4981195;28;19918;-48
2021/12/28 08:45:14;;;;;;;;;;;;;;;17.53;45.88;99106.31;4981290;28;20025;-41
2021/12/28 08:47:39;;;;;;;;;;;;;;;17.52;45.83;99094.75;4980732;28;20016;-42
2021/12/28 08:50:06;;;;;;;;;;;;;;;17.55;46.00;99096.22;4979772;28;19926;-44
2021/12/28 08:52:31;;;;;;;;;;;;;;;17.55;45.84;99102.41;4979932;28;19954;-47
2021/12/28 08:54:56;;;;;;;;;;;;;;;17.56;45.88;99087.94;4981034;28;19918;-42
2021/12/28 08:57:21;;;;;;;;;;;;;;;17.59;45.85;99084.03;4981420;28;19924;-45
2021/12/28 08:59:47;;;;;;;;;;;;;;;17.60;45.92;99078.44;4981147;28;19918;-42
2021/12/28 09:02:12;;;;;;;;;;;;;;;17.62;45.83;99083.59;4980826;28;19941;-42
2021/12/28 09:04:43;;;;;;;;;;;;;;;17.63;45.70;99078.03;4979152;28;19918;-47
2021/12/28 09:07:08;;;;;;;;;;;;;;;17.64;45.71;99065.44;4983169;28;19922;-49
2021/12/28 09:09:33;;;;;;;;;;;;;;;17.66;45.67;99072.22;4981254;28;19921;-45
2021/12/28 09:11:58;;;;;;;;;;;;;;;17.66;45.60;99069.56;4980499;28;19982;-47
2021/12/28 09:14:23;;;;;;;;;;;;;;;17.68;45.68;99064.00;4981141;28;19925;-47
2021/12/28 09:16:48;;;;;;;;;;;;;;;17.70;45.53;99064.59;4981030;28;20028;-49
2021/12/28 09:19:14;;;;;;;;;;;;;;;17.71;45.57;99077.00;4979178;28;19960;-46
2021/12/28 09:21:39;;;;;;;;;;;;;;;17.72;45.65;99065.22;4962293;28;19918;-45
2021/12/28 09:24:04;;;;;;;;;;;;;;;17.74;45.49;99066.69;4981076;28;20386;-46
2021/12/28 09:26:30;;;;;;;;;;;;;;;17.77;45.55;99065.47;4980943;28;19975;-43
2021/12/28 09:28:55;;;;;;;;;;;;;;;17.78;45.43;99060.91;4979825;28;19929;-45
2021/12/28 09:31:20;;;;;;;;;;;;;;;17.80;45.31;99057.00;4995034;28;19922;-43
2021/12/28 09:33:45;;;;;;;;;;;;;;;17.81;45.27;99058.66;4980281;28;19933;-46
2021/12/28 09:36:14;;;;;;;;;;;;;;;17.83;45.31;99053.06;4981021;28;19961;-45
2021/12/28 09:38:39;;;;;;;;;;;;;;;17.85;45.24;99062.59;4978771;28;20434;-42
2021/12/28 09:41:05;;;;;;;;;;;;;;;17.86;45.45;99053.47;4980169;28;19918;-41
2021/12/28 09:43:30;;;;;;;;;;;;;;;17.88;45.22;99048.72;4983911;28;19922;-46
2021/12/28 09:45:55;;;;;;;;;;;;;;;17.89;45.30;99039.63;4981537;28;19979;-44
2021/12/28 09:48:20;;;;;;;;;;;;;;;17.91;45.10;99034.84;4979244;28;19930;-46
2021/12/28 09:50:45;;;;;;;;;;;;;;;17.93;45.15;99034.66;4982844;28;19926;-46
2021/12/28 09:53:12;;;;;;;;;;;;;;;17.94;45.08;99042.50;4984218;28;19922;-45
2021/12/28 09:55:37;;;;;;;;;;;;;;;17.97;45.24;99038.59;4983797;28;19922;-44
2021/12/28 09:58:02;;;;;;;;;;;;;;;17.98;45.24;99030.31;4983779;28;19918;-45
2021/12/28 10:00:28;;;;;;;;;;;;;;;18.01;45.42;99022.84;4983275;28;19992;-44
2021/12/28 10:02:53;;;;;;;;;;;;;;;18.04;45.39;99019.75;4982577;28;19929;-44
2021/12/28 10:05:21;;;;;;;;;;;;;;;18.07;45.31;99022.84;4982418;28;19926;-41
2021/12/28 10:07:57;;;;;;;;;;;;;;;18.09;45.17;99011.88;4982454;28;19981;-45
2021/12/28 10:10:42;;;;;;;;;;;;;;;18.11;45.35;99009.81;4981966;28;19926;-39
2021/12/28 10:13:09;;;;;;;;;;;;;;;18.14;45.25;99014.78;4979955;28;19990;-47
2021/12/28 10:15:35;;;;;;;;;;;;;;;18.15;45.22;98994.91;4983398;28;19928;-48
2021/12/28 10:18:02;;;;;;;;;;;;;;;18.15;45.27;98998.44;4979222;28;19934;-48
2021/12/28 10:20:32;;;;;;;;;;;;;;;18.16;45.21;98994.69;4980194;28;19932;-42
2021/12/28 10:22:59;;;;;;;;;;;;;;;18.17;45.29;98990.97;4981738;28;19952;-40
2021/12/28 10:25:25;;;;;;;;;;;;;;;18.18;45.24;98989.09;4981817;28;19926;-42
2021/12/28 10:27:51;;;;;;;;;;;;;;;18.19;45.36;98990.78;4982598;28;20040;-45
2021/12/28 10:30:19;;;;;;;;;;;;;;;18.18;45.36;98973.81;4981909;28;20516;-45
2021/12/28 10:32:46;;;;;;;;;;;;;;;18.18;45.26;98972.97;4980899;28;20061;-46
2021/12/28 10:35:13;;;;;;;;;;;;;;;18.19;45.42;98963.88;4981884;28;19929;-47
2021/12/28 10:37:40;;;;;;;;;;;;;;;18.21;45.46;98969.84;4981688;28;19918;-48
2021/12/28 10:40:07;;;;;;;;;;;;;;;18.22;45.49;98956.22;4983457;28;19922;-49
2021/12/28 10:42:36;;;;;;;;;;;;;;;18.24;45.50;98956.00;4982717;28;19922;-44
2021/12/28 10:45:01;;;;;;;;;;;;;;;18.24;45.29;98954.13;4983358;28;19926;-48
2021/12/28 10:47:27;;;;;;;;;;;;;;;18.27;45.38;98952.88;4982962;28;19972;-46
2021/12/28 10:49:52;;;;;;;;;;;;;;;18.27;45.34;98947.50;4982258;28;19990;-45
2021/12/28 10:52:26;;;;;;;;;;;;;;;18.29;45.20;98947.28;4982321;28;20020;-50
2021/12/28 10:54:51;;;;;;;;;;;;;;;18.28;45.26;98933.00;4981401;28;20177;-47
2021/12/28 10:57:16;;;;;;;;;;;;;;;18.30;45.26;98943.56;4982609;28;19982;-45
2021/12/28 10:59:41;;;;;;;;;;;;;;;18.31;45.25;98929.91;4980589;28;20269;-47
2021/12/28 11:02:06;;;;;;;;;;;;;;;18.32;45.22;98923.47;4981985;28;19929;-48
2021/12/28 11:04:36;;;;;;;;;;;;;;;18.32;45.02;98934.25;4982375;28;19926;-47
2021/12/28 11:07:03;;;;;;;;;;;;;;;18.33;44.93;98911.66;4982673;28;19926;-45
2021/12/28 11:09:28;;;;;;;;;;;;;;;18.35;45.02;98915.00;4979286;28;20029;-44
2021/12/28 11:11:54;;;;;;;;;;;;;;;18.35;44.88;98906.91;4981754;28;19918;-50
2021/12/28 11:14:21;;;;;;;;;;;;;;;18.37;45.19;98901.31;4982457;28;19925;-44
2021/12/28 11:16:49;;;;;;;;;;;;;;;18.40;45.09;98892.81;4982513;28;19925;-49
2021/12/28 11:19:21;;;;;;;;;;;;;;;18.28;45.05;98873.84;4981999;28;19958;-46
2021/12/28 11:21:51;;;;;;;;;;;;;;;18.42;44.87;98882.66;4980577;28;20054;-47
2021/12/28 11:24:17;;;;;;;;;;;;;;;18.43;45.03;98878.91;4982647;28;20966;-46
2021/12/28 11:26:44;;;;;;;;;;;;;;;18.44;44.81;98877.91;4982563;28;20486;-47
2021/12/28 11:29:28;;;;;;;;;;;;;;;18.46;44.89;98870.44;4981922;28;20431;-46
2021/12/28 11:31:55;;;;;;;;;;;;;;;18.47;44.83;98872.88;4981725;28;20455;-49
2021/12/28 11:34:24;;;;;;;;;;;;;;;18.48;44.70;98860.28;4981268;28;19918;-43
2021/12/28 11:36:52;;;;;;;;;;;;;;;18.50;44.85;98855.50;4982059;28;19918;-45
2021/12/28 11:39:18;;;;;;;;;;;;;;;18.52;44.62;98848.06;4981779;28;20296;-46
2021/12/28 11:41:44;;;;;;;;;;;;;;;18.55;44.74;98847.59;4981327;28;19918;-46
2021/12/28 11:44:09;;;;;;;;;;;;;;;18.55;44.54;98838.72;4981970;28;20350;-47
2021/12/28 11:46:35;;;;;;;;;;;;;;;18.57;44.59;98829.38;4979553;28;20017;-48
2021/12/28 11:49:00;;;;;;;;;;;;;;;18.59;44.69;98827.28;4981709;28;19914;-48
2021/12/28 11:51:25;;;;;;;;;;;;;;;18.60;44.50;98818.16;4980678;28;19914;-44
2021/12/28 11:53:51;;;;;;;;;;;;;;;18.61;44.57;98814.47;4981200;28;19926;-46
2021/12/28 11:56:18;;;;;;;;;;;;;;;18.62;44.53;98817.97;4978462;28;19937;-50
2021/12/28 11:58:55;;;;;;;;;;;;;;;18.62;44.63;98818.78;4992636;28;19914;-51
2021/12/28 12:01:35;;;;;;;;;;;;;;;18.62;44.94;98816.09;4981286;28;19914;-45
2021/12/28 12:04:01;;;;;;;;;;;;;;;18.62;45.01;98813.41;4978478;28;19914;-46
2021/12/28 12:06:45;;;;;;;;;;;;;;;18.63;45.02;98811.53;4982070;28;19922;-43
2021/12/28 12:09:10;;;;;;;;;;;;;;;18.63;45.42;98803.47;4978874;28;19914;-46
2021/12/28 12:11:52;;;;;;;;;;;;;;;18.64;45.21;98783.56;4983650;28;19928;-47
2021/12/28 12:14:17;;;;;;;;;;;;;;;18.65;45.23;98787.94;4982564;28;19914;-46
2021/12/28 12:16:42;;;;;;;;;;;;;;;18.65;45.38;98785.25;4982031;28;20005;-44
2021/12/28 12:19:07;;;;;;;;;;;;;;;18.66;45.39;98784.19;4982356;28;19922;-46
2021/12/28 12:21:32;;;;;;;;;;;;;;;18.66;45.30;98771.56;4981565;28;19953;-43
2021/12/28 12:23:58;;;;;;;;;;;;;;;18.66;45.32;98770.72;4983239;28;19921;-43
2021/12/28 12:26:33;;;;;;;;;;;;;;;18.66;45.08;98768.03;5014402;28;19922;-44
2021/12/28 12:28:59;;;;;;;;;;;;;;;18.66;45.23;98768.88;4975311;28;20019;-45
2021/12/28 12:31:31;;;;;;;;;;;;;;;18.66;45.20;98762.66;4983389;28;19920;-43
2021/12/28 12:33:57;;;;;;;;;;;;;;;18.66;45.29;98760.78;4982440;28;19957;-45
2021/12/28 12:36:30;;;;;;;;;;;;;;;18.67;45.28;98757.03;4983389;28;19918;-46
2021/12/28 12:38:55;;;;;;;;;;;;;;;18.68;45.23;98737.16;4982997;28;19929;-47
2021/12/28 12:41:23;;;;;;;;;;;;;;;18.67;45.32;98746.28;4983570;28;19918;-45
2021/12/28 12:43:52;;;;;;;;;;;;;;;18.69;45.34;98746.03;4982908;28;19918;-45